createdAt,value
2023-03-28T00:01:17.479Z,34.35
2023-03-28T00:03:48.146Z,34.40
2023-03-28T00:06:18.830Z,34.35
2023-03-28T00:08:48.334Z,34.51
2023-03-28T00:11:20.288Z,34.64
2023-03-28T00:13:50.441Z,34.61
2023-03-28T00:16:19.163Z,34.76
2023-03-28T00:18:47.818Z,34.90
2023-03-28T00:21:24.509Z,34.99
2023-03-28T00:23:54.507Z,35.08
2023-03-28T00:26:27.572Z,35.09
2023-03-28T00:28:56.427Z,35.11
2023-03-28T00:31:26.139Z,35.13
2023-03-28T00:33:54.461Z,35.15
2023-03-28T00:36:26.782Z,35.21
2023-03-28T00:39:01.608Z,35.20
2023-03-28T00:41:33.247Z,35.27
2023-03-28T00:44:02.052Z,35.29
2023-03-28T00:46:32.789Z,35.35
2023-03-28T00:49:13.137Z,35.47
2023-03-28T00:51:48.826Z,35.56
2023-03-28T00:54:18.862Z,35.75
2023-03-28T00:56:52.552Z,35.77
2023-03-28T00:59:23.743Z,35.90
2023-03-28T01:01:52.109Z,36.10
2023-03-28T01:04:22.458Z,36.20
2023-03-28T01:06:54.974Z,36.28
2023-03-28T01:09:24.886Z,36.29
2023-03-28T01:11:54.915Z,36.26
2023-03-28T01:14:24.929Z,36.21
2023-03-28T01:16:56.728Z,36.18
2023-03-28T01:19:38.871Z,36.26
2023-03-28T01:22:29.064Z,36.18
2023-03-28T01:25:23.354Z,36.20
2023-03-28T01:28:27.464Z,36.34
2023-03-28T01:30:59.336Z,36.53
2023-03-28T01:34:13.300Z,36.76
2023-03-28T01:37:01.828Z,37.03
2023-03-28T01:39:38.190Z,37.14
2023-03-28T01:42:27.760Z,37.25
2023-03-28T01:45:08.434Z,37.41
2023-03-28T01:47:41.497Z,37.46
2023-03-28T01:50:18.412Z,37.49
2023-03-28T01:52:46.976Z,37.37
2023-03-28T01:55:20.581Z,37.62
2023-03-28T01:58:08.519Z,37.98
2023-03-28T02:00:49.866Z,38.48
2023-03-28T02:03:21.804Z,38.97
2023-03-28T02:05:57.733Z,39.45
2023-03-28T02:08:29.164Z,39.61
2023-03-28T02:11:25.115Z,39.89
2023-03-28T02:14:14.875Z,40.18
2023-03-28T02:16:54.480Z,40.78
2023-03-28T02:19:38.689Z,41.34
2023-03-28T02:22:20.596Z,41.47
2023-03-28T02:25:01.249Z,41.29
2023-03-28T02:27:37.748Z,40.76
2023-03-28T02:30:25.770Z,40.18
2023-03-28T02:33:02.658Z,40.25
2023-03-28T02:36:05.871Z,40.05
2023-03-28T02:38:48.678Z,39.75
2023-03-28T02:41:45.400Z,40.15
2023-03-28T02:44:20.817Z,40.10
2023-03-28T02:46:59.509Z,40.29
2023-03-28T02:49:49.451Z,40.66
2023-03-28T02:52:40.428Z,40.97
2023-03-28T02:55:13.835Z,41.28
2023-03-28T02:57:54.544Z,42.06
2023-03-28T03:00:23.124Z,42.85
2023-03-28T03:02:52.762Z,43.44
2023-03-28T03:05:21.402Z,43.91
2023-03-28T03:07:50.033Z,44.33
2023-03-28T03:10:18.908Z,44.57
2023-03-28T03:12:49.738Z,44.90
2023-03-28T03:15:18.559Z,45.19
2023-03-28T03:17:47.749Z,45.42
2023-03-28T03:20:16.624Z,45.46
2023-03-28T03:22:45.468Z,45.57
2023-03-28T03:25:16.564Z,45.68
2023-03-28T03:27:54.448Z,45.60
2023-03-28T03:30:23.637Z,45.44
2023-03-28T03:33:10.702Z,45.48
2023-03-28T03:35:42.285Z,45.39
2023-03-28T03:38:10.837Z,45.21
2023-03-28T03:40:39.312Z,45.29
2023-03-28T03:43:11.762Z,45.16
2023-03-28T03:45:41.197Z,45.04
2023-03-28T03:48:10.389Z,45.00
2023-03-28T03:50:39.780Z,45.11
2023-03-28T03:53:16.972Z,45.16
2023-03-28T03:55:53.512Z,45.06
2023-03-28T03:58:22.639Z,44.98
2023-03-28T04:00:53.290Z,44.74
2023-03-28T04:03:41.776Z,44.57
2023-03-28T04:06:10.193Z,44.40
2023-03-28T04:08:38.797Z,44.27
2023-03-28T04:11:10.755Z,43.92
2023-03-28T04:13:42.907Z,43.62
2023-03-28T04:16:13.851Z,43.60
2023-03-28T04:18:51.190Z,44.17
2023-03-28T04:21:25.997Z,44.48
2023-03-28T04:23:56.512Z,44.78
2023-03-28T04:26:38.185Z,45.00
2023-03-28T04:29:10.604Z,44.94
2023-03-28T04:31:40.366Z,45.01
2023-03-28T04:34:20.345Z,44.87
2023-03-28T04:37:03.473Z,44.67
2023-03-28T04:39:35.864Z,44.57
2023-03-28T04:42:22.854Z,44.48
2023-03-28T04:45:17.990Z,44.45
2023-03-28T04:47:48.457Z,44.43
2023-03-28T04:50:18.246Z,44.28
2023-03-28T04:52:46.996Z,44.05
2023-03-28T04:55:17.463Z,43.71
2023-03-28T04:57:50.512Z,43.99
2023-03-28T05:00:22.786Z,43.99
2023-03-28T05:03:05.213Z,43.68
2023-03-28T05:05:45.653Z,43.30
2023-03-28T05:08:15.986Z,42.97
2023-03-28T05:10:45.392Z,42.94
2023-03-28T05:13:13.975Z,43.12
2023-03-28T05:15:46.777Z,43.04
2023-03-28T05:18:35.100Z,42.83
2023-03-28T05:21:03.905Z,43.12
2023-03-28T05:23:32.786Z,43.39
2023-03-28T05:26:02.839Z,43.34
2023-03-28T05:28:34.611Z,43.43
2023-03-28T05:33:55.797Z,47.09
2023-03-28T05:36:34.104Z,45.20
2023-03-28T05:39:03.137Z,45.43
2023-03-28T05:41:33.129Z,45.49
2023-03-28T05:44:01.340Z,45.57
2023-03-28T05:46:43.503Z,46.19
2023-03-28T05:49:12.340Z,46.29
2023-03-28T05:51:41.803Z,46.43
2023-03-28T05:54:10.701Z,46.35
2023-03-28T05:56:44.318Z,46.02
2023-03-28T05:59:14.759Z,45.88
2023-03-28T06:01:46.384Z,45.75
2023-03-28T06:04:15.983Z,45.74
2023-03-28T06:06:46.013Z,45.74
2023-03-28T06:09:14.914Z,45.93
2023-03-28T06:11:52.146Z,45.86
2023-03-28T06:15:12.792Z,45.71
2023-03-28T06:17:50.813Z,45.98
2023-03-28T06:20:19.447Z,46.02
2023-03-28T06:22:47.973Z,46.14
2023-03-28T06:25:16.216Z,46.01
2023-03-28T06:27:44.445Z,45.95
2023-03-28T06:30:13.780Z,46.04
2023-03-28T06:32:47.442Z,46.03
2023-03-28T06:35:16.713Z,46.07
2023-03-28T06:37:45.035Z,46.13
2023-03-28T06:40:16.970Z,46.08
2023-03-28T06:42:46.583Z,45.96
2023-03-28T06:45:32.553Z,45.78
2023-03-28T06:48:05.441Z,45.60
2023-03-28T06:50:59.890Z,45.38
2023-03-28T06:53:28.557Z,44.87
2023-03-28T06:55:56.833Z,44.80
2023-03-28T06:58:26.186Z,44.94
2023-03-28T07:00:59.446Z,45.11
2023-03-28T07:03:44.244Z,45.03
2023-03-28T07:06:14.616Z,45.21
2023-03-28T07:08:44.696Z,45.33
2023-03-28T07:11:13.160Z,44.95
2023-03-28T07:13:43.210Z,44.49
2023-03-28T07:16:13.278Z,44.39
2023-03-28T07:18:41.793Z,44.70
2023-03-28T07:21:12.060Z,44.70
2023-03-28T07:23:41.254Z,44.33
2023-03-28T07:26:10.235Z,44.09
2023-03-28T07:28:40.016Z,44.03
2023-03-28T07:31:08.287Z,44.04
2023-03-28T07:33:41.635Z,44.17
2023-03-28T07:36:16.674Z,44.02
2023-03-28T07:38:49.223Z,43.92
2023-03-28T07:41:18.954Z,43.69
2023-03-28T07:43:47.167Z,43.77
2023-03-28T07:46:16.472Z,43.63
2023-03-28T07:48:46.759Z,43.34
2023-03-28T07:51:15.734Z,43.20
2023-03-28T07:53:46.124Z,43.05
2023-03-28T07:56:14.923Z,42.77
2023-03-28T08:03:29.384Z,42.89
2023-03-28T08:06:02.775Z,42.76
2023-03-28T08:08:31.634Z,42.63
2023-03-28T08:11:06.700Z,42.65
2023-03-28T08:13:35.410Z,42.91
2023-03-28T08:16:08.463Z,43.08
2023-03-28T08:18:36.660Z,42.63
2023-03-28T08:21:10.926Z,42.68
2023-03-28T08:23:40.101Z,42.85
2023-03-28T08:26:40.674Z,42.76
2023-03-28T08:29:11.658Z,42.87
2023-03-28T08:31:39.989Z,42.83
2023-03-28T08:34:12.545Z,42.77
2023-03-28T08:36:42.531Z,42.81
2023-03-28T08:39:20.646Z,42.59
2023-03-28T08:41:58.685Z,42.74
2023-03-28T08:44:33.765Z,43.00
2023-03-28T08:47:04.672Z,43.02
2023-03-28T08:49:34.654Z,43.28
2023-03-28T08:52:05.657Z,43.51
2023-03-28T08:55:01.425Z,43.79
2023-03-28T08:57:36.015Z,43.72
2023-03-28T09:00:14.718Z,44.17
2023-03-28T09:02:44.138Z,44.01
2023-03-28T09:05:23.769Z,43.90
2023-03-28T09:07:59.983Z,44.08
2023-03-28T09:10:36.456Z,44.06
2023-03-28T09:14:03.030Z,44.11
2023-03-28T09:16:43.210Z,44.09
2023-03-28T09:19:55.343Z,44.27
2023-03-28T09:22:53.161Z,44.68
2023-03-28T09:25:32.860Z,44.80
2023-03-28T09:28:08.037Z,44.93
2023-03-28T09:30:39.349Z,45.13
2023-03-28T09:33:13.290Z,44.97
2023-03-28T09:35:43.330Z,45.17
2023-03-28T09:38:21.353Z,45.16
2023-03-28T09:40:52.216Z,45.09
2023-03-28T09:43:20.325Z,45.22
2023-03-28T09:46:11.927Z,45.44
2023-03-28T09:49:01.244Z,45.36
2023-03-28T09:51:32.307Z,45.15
2023-03-28T09:54:05.067Z,45.07
2023-03-28T09:56:34.546Z,44.90
2023-03-28T09:59:31.145Z,44.85
2023-03-28T10:02:05.723Z,44.99
2023-03-28T10:04:38.472Z,45.02
2023-03-28T10:07:30.068Z,45.27
2023-03-28T10:10:13.711Z,45.25
2023-03-28T10:12:47.381Z,45.03
2023-03-28T10:15:34.145Z,44.90
2023-03-28T10:18:21.031Z,45.27
2023-03-28T10:21:09.194Z,45.16
2023-03-28T10:23:41.270Z,45.14
2023-03-28T10:26:13.106Z,46.13
2023-03-28T10:28:43.450Z,45.97
2023-03-28T10:31:26.489Z,45.96
2023-03-28T10:33:56.623Z,45.97
2023-03-28T10:36:45.004Z,46.24
2023-03-28T10:39:24.374Z,45.61
2023-03-28T10:42:15.669Z,45.61
2023-03-28T10:45:04.484Z,46.03
2023-03-28T10:47:36.667Z,45.80
2023-03-28T10:50:07.351Z,46.06
2023-03-28T10:52:47.608Z,45.93
2023-03-28T10:55:25.205Z,45.93
2023-03-28T10:58:33.810Z,46.47
2023-03-28T11:01:13.360Z,46.48
2023-03-28T11:04:25.436Z,46.60
2023-03-28T11:07:11.439Z,46.92
2023-03-28T11:10:23.942Z,46.98
2023-03-28T11:13:38.596Z,46.94
2023-03-28T11:16:27.528Z,46.73
2023-03-28T11:19:30.765Z,46.55
2023-03-28T11:22:02.937Z,46.49
2023-03-28T11:24:45.645Z,46.33
2023-03-28T11:27:59.772Z,46.12
2023-03-28T11:30:36.389Z,46.33
2023-03-28T11:33:27.192Z,46.59
2023-03-28T11:36:03.706Z,46.30
2023-03-28T11:38:33.714Z,46.03
2023-03-28T11:41:11.401Z,45.75
2023-03-28T11:44:18.656Z,45.74
2023-03-28T11:47:03.436Z,45.69
2023-03-28T11:49:38.191Z,45.61
2023-03-28T11:52:17.448Z,45.54
2023-03-28T11:55:14.933Z,46.09
2023-03-28T11:57:57.082Z,46.38
2023-03-28T12:00:33.634Z,45.59
2023-03-28T12:03:24.040Z,45.05
2023-03-28T12:06:05.364Z,45.61
2023-03-28T12:08:57.290Z,45.97
2023-03-28T12:12:05.084Z,46.11
2023-03-28T12:14:50.043Z,45.95
2023-03-28T12:17:41.172Z,45.70
2023-03-28T12:20:32.410Z,45.73
2023-03-28T12:23:10.071Z,45.15
2023-03-28T12:26:18.415Z,45.11
2023-03-28T12:28:51.374Z,43.69
2023-03-28T12:31:29.261Z,41.84
2023-03-28T12:34:16.033Z,40.97
2023-03-28T12:37:25.146Z,40.59
2023-03-28T12:40:12.987Z,40.64
2023-03-28T12:42:44.055Z,41.03
2023-03-28T12:45:29.730Z,40.67
2023-03-28T12:48:08.122Z,40.32
2023-03-28T12:51:15.277Z,40.78
2023-03-28T12:54:09.986Z,41.22
2023-03-28T12:56:42.112Z,40.83
2023-03-28T12:59:48.070Z,40.87
2023-03-28T13:02:51.790Z,41.36
2023-03-28T13:05:49.230Z,40.91
2023-03-28T13:08:46.487Z,40.75
2023-03-28T13:11:39.993Z,40.25
2023-03-28T13:14:29.081Z,40.19
2023-03-28T13:17:03.053Z,39.90
2023-03-28T13:19:54.194Z,39.86
2023-03-28T13:22:33.235Z,39.89
2023-03-28T13:25:32.505Z,39.79
2023-03-28T13:28:34.159Z,39.92
2023-03-28T13:31:11.366Z,40.11
2023-03-28T13:34:04.219Z,40.29
2023-03-28T13:36:54.167Z,40.13
2023-03-28T13:39:28.385Z,40.08
2023-03-28T13:50:01.347Z,40.00
2023-03-28T13:52:28.921Z,40.11
2023-03-28T13:55:04.521Z,40.27
2023-03-28T13:57:31.746Z,40.54
2023-03-28T14:00:00.856Z,40.70
2023-03-28T14:02:37.932Z,40.62
2023-03-28T14:05:14.585Z,40.58
2023-03-28T14:07:41.734Z,41.00
2023-03-28T14:10:28.533Z,41.25
2023-03-28T14:13:05.621Z,41.54
2023-03-28T14:15:38.365Z,41.45
2023-03-28T14:18:05.735Z,41.63
2023-03-28T14:20:32.920Z,41.67
2023-03-28T14:23:01.270Z,41.70
2023-03-28T14:25:29.570Z,42.09
2023-03-28T14:27:57.317Z,42.50
2023-03-28T14:30:29.310Z,42.42
2023-03-28T14:32:58.521Z,42.44
2023-03-28T14:35:32.993Z,42.33
2023-03-28T14:38:02.282Z,42.73
2023-03-28T14:40:33.893Z,43.05
2023-03-28T14:43:04.004Z,43.15
2023-03-28T14:45:33.822Z,43.02
2023-03-28T14:48:02.379Z,43.16
2023-03-28T14:50:35.416Z,43.39
2023-03-28T14:53:07.460Z,43.70
2023-03-28T14:55:36.504Z,43.77
2023-03-28T14:58:05.141Z,43.71
2023-03-28T15:00:48.019Z,43.91
2023-03-28T15:03:16.678Z,43.90
2023-03-28T15:06:38.899Z,43.62
2023-03-28T15:09:30.939Z,43.76
2023-03-28T15:12:04.512Z,43.84
2023-03-28T15:14:42.190Z,44.12
2023-03-28T15:17:17.713Z,43.93
2023-03-28T15:19:50.344Z,43.95
2023-03-28T15:22:21.642Z,43.68
2023-03-28T15:24:52.134Z,43.27
2023-03-28T15:27:31.311Z,43.14
2023-03-28T15:29:58.601Z,43.36
2023-03-28T15:32:25.436Z,43.29
2023-03-28T15:35:06.301Z,43.48
2023-03-28T15:37:40.918Z,43.28
2023-03-28T15:40:29.062Z,43.34
2023-03-28T15:42:56.475Z,43.46
2023-03-28T15:45:29.651Z,43.41
2023-03-28T15:47:56.862Z,43.38
2023-03-28T15:50:35.537Z,43.48
2023-03-28T15:53:06.795Z,43.42
2023-03-28T15:55:33.739Z,43.33
2023-03-28T15:58:03.336Z,43.07
2023-03-28T16:00:42.069Z,43.41
2023-03-28T16:03:25.261Z,43.63
2023-03-28T16:06:07.811Z,43.28
2023-03-28T16:08:46.224Z,43.20
2023-03-28T16:11:16.960Z,43.27
2023-03-28T16:13:47.176Z,42.81
2023-03-28T16:16:39.429Z,42.73
2023-03-28T16:19:21.535Z,42.62
2023-03-28T16:21:49.376Z,42.80
2023-03-28T16:24:16.854Z,42.87
2023-03-28T16:26:44.202Z,42.72
2023-03-28T16:29:12.175Z,42.55
2023-03-28T16:31:39.358Z,42.34
2023-03-28T16:36:04.429Z,45.76
2023-03-28T16:38:32.801Z,44.85
2023-03-28T16:41:00.249Z,43.16
2023-03-28T16:43:28.633Z,42.27
2023-03-28T16:45:56.693Z,41.76
2023-03-28T16:48:23.869Z,40.99
2023-03-28T16:50:55.304Z,40.43
2023-03-28T16:53:22.372Z,40.22
2023-03-28T16:55:50.160Z,39.24
2023-03-28T16:58:17.553Z,38.55
2023-03-28T17:00:49.794Z,39.75
2023-03-28T17:03:18.019Z,40.00
2023-03-28T17:05:45.925Z,39.86
2023-03-28T17:08:13.776Z,40.00
2023-03-28T17:10:42.697Z,40.74
2023-03-28T17:13:09.639Z,42.01
2023-03-28T17:15:36.668Z,41.79
2023-03-28T17:18:06.807Z,40.90
2023-03-28T17:20:33.782Z,40.80
2023-03-28T17:23:01.288Z,40.16
2023-03-28T17:25:28.853Z,39.01
2023-03-28T17:27:55.760Z,38.85
2023-03-28T17:30:23.156Z,39.01
2023-03-28T17:32:53.557Z,39.23
2023-03-28T17:35:21.101Z,38.22
2023-03-28T17:37:52.193Z,38.11
2023-03-28T17:40:19.345Z,38.23
2023-03-28T17:42:46.597Z,37.76
2023-03-28T17:45:14.773Z,37.60
2023-03-28T17:47:42.371Z,36.87
2023-03-28T17:50:10.711Z,37.05
2023-03-28T17:52:37.962Z,37.27
2023-03-28T17:55:08.464Z,36.59
2023-03-28T17:57:36.564Z,36.96
2023-03-28T18:00:04.562Z,37.84
2023-03-28T18:02:50.340Z,37.63
2023-03-28T18:05:47.206Z,36.61
2023-03-28T18:08:14.116Z,36.42
2023-03-28T18:10:42.616Z,35.38
2023-03-28T18:13:10.172Z,35.18
2023-03-28T18:15:40.239Z,36.26
2023-03-28T18:18:08.695Z,37.85
2023-03-28T18:20:36.128Z,38.55
2023-03-28T18:23:04.111Z,39.52
2023-03-28T18:25:33.611Z,40.70
2023-03-28T18:28:01.477Z,40.67
2023-03-28T18:30:29.030Z,40.54
2023-03-28T18:32:56.423Z,41.40
2023-03-28T18:35:26.559Z,42.04
2023-03-28T18:37:53.665Z,41.71
2023-03-28T18:40:21.627Z,41.89
2023-03-28T18:42:49.494Z,42.87
2023-03-28T18:45:17.152Z,43.23
2023-03-28T18:47:44.950Z,42.50
2023-03-28T18:50:12.164Z,42.18
2023-03-28T18:52:39.159Z,41.65
2023-03-28T18:55:07.202Z,41.53
2023-03-28T18:57:34.597Z,41.28
2023-03-28T19:00:15.645Z,41.29
2023-03-28T19:02:47.913Z,41.57
2023-03-28T19:05:16.224Z,41.40
2023-03-28T19:07:44.997Z,53.65
2023-03-28T19:10:12.828Z,52.44
2023-03-28T19:12:44.709Z,51.58
2023-03-28T19:15:16.574Z,51.61
2023-03-28T19:17:46.118Z,51.04
2023-03-28T19:20:13.472Z,50.98
2023-03-28T19:22:42.019Z,50.56
2023-03-28T19:25:09.574Z,50.04
2023-03-28T19:27:37.276Z,50.56
2023-03-28T19:30:07.720Z,50.80
2023-03-28T19:32:36.792Z,50.22
2023-03-28T19:35:04.577Z,49.91
2023-03-28T19:37:31.686Z,49.56
2023-03-28T19:39:58.949Z,48.86
2023-03-28T19:42:26.520Z,48.79
2023-03-28T19:44:54.156Z,48.83
2023-03-28T19:47:21.745Z,47.95
2023-03-28T19:49:49.688Z,47.29
2023-03-28T19:52:16.741Z,46.98
2023-03-28T19:54:45.117Z,46.28
2023-03-28T19:57:13.221Z,46.22
2023-03-28T19:59:40.231Z,45.81
2023-03-28T20:02:09.575Z,46.12
2023-03-28T20:04:38.527Z,45.57
2023-03-28T20:07:06.309Z,45.35
2023-03-28T20:09:41.690Z,44.60
2023-03-28T20:12:08.692Z,44.34
2023-03-28T20:14:36.058Z,43.96
2023-03-28T20:17:03.482Z,43.73
2023-03-28T20:19:31.293Z,43.33
2023-03-28T20:21:58.333Z,42.72
2023-03-28T20:24:25.718Z,42.07
2023-03-28T20:26:52.674Z,42.05
2023-03-28T20:29:21.423Z,41.55
2023-03-28T20:31:48.535Z,41.39
2023-03-28T20:34:15.837Z,41.64
2023-03-28T20:36:45.946Z,41.27
2023-03-28T20:39:13.812Z,41.05
2023-03-28T20:41:41.013Z,40.92
2023-03-28T20:44:19.389Z,40.75
2023-03-28T20:46:48.329Z,40.83
2023-03-28T20:49:20.862Z,40.77
2023-03-28T20:51:51.897Z,40.80
2023-03-28T20:54:21.307Z,40.67
2023-03-28T20:57:08.566Z,40.38
2023-03-28T20:59:36.279Z,40.00
2023-03-28T21:02:04.768Z,40.36
2023-03-28T21:04:32.160Z,40.51
2023-03-28T21:07:01.123Z,40.45
2023-03-28T21:09:29.049Z,40.42
2023-03-28T21:11:56.049Z,40.36
2023-03-28T21:14:28.818Z,40.19
2023-03-28T21:16:57.526Z,40.44
2023-03-28T21:19:24.659Z,40.16
2023-03-28T21:21:56.724Z,40.19
2023-03-28T21:24:23.957Z,40.09
2023-03-28T21:26:51.361Z,40.31
2023-03-28T21:29:18.858Z,40.19
2023-03-28T21:31:45.891Z,40.33
2023-03-28T21:34:12.997Z,40.00
2023-03-28T21:36:42.092Z,39.94
2023-03-28T21:39:09.112Z,39.98
2023-03-28T21:41:40.695Z,39.88
2023-03-28T21:44:07.488Z,39.68
2023-03-28T21:46:35.266Z,39.30
2023-03-28T21:49:05.263Z,39.43
2023-03-28T21:51:32.882Z,39.35
2023-03-28T21:54:00.149Z,39.41
2023-03-28T21:56:27.185Z,39.38
2023-03-28T21:58:54.254Z,39.39
2023-03-28T22:01:22.930Z,39.19
2023-03-28T22:03:50.819Z,39.25
2023-03-28T22:06:18.250Z,39.32
2023-03-28T22:08:48.987Z,39.04
2023-03-28T22:11:17.481Z,39.14
2023-03-28T22:13:49.760Z,39.14
2023-03-28T22:16:17.068Z,39.08
2023-03-28T22:18:49.118Z,39.10
2023-03-28T22:21:16.796Z,39.01
2023-03-28T22:23:47.197Z,39.16
2023-03-28T22:26:20.366Z,38.98
2023-03-28T22:28:48.744Z,38.97
2023-03-28T22:31:17.020Z,38.67
2023-03-28T22:33:44.167Z,38.99
2023-03-28T22:36:11.672Z,38.66
2023-03-28T22:38:38.773Z,38.52
2023-03-28T22:41:07.165Z,38.33
2023-03-28T22:43:34.505Z,38.37
2023-03-28T22:46:01.880Z,38.53
2023-03-28T22:48:30.842Z,38.46
2023-03-28T22:51:00.258Z,37.75
2023-03-28T22:53:27.804Z,37.98
2023-03-28T22:55:55.001Z,38.24
2023-03-28T22:58:23.255Z,38.17
2023-03-28T23:00:50.505Z,38.24
2023-03-28T23:03:17.655Z,38.38
2023-03-28T23:05:44.967Z,38.22
2023-03-28T23:08:13.394Z,38.16
2023-03-28T23:10:40.498Z,38.45
2023-03-28T23:13:09.944Z,38.16
2023-03-28T23:15:37.288Z,38.08
2023-03-28T23:18:04.625Z,37.57
2023-03-28T23:20:32.449Z,37.92
2023-03-28T23:22:59.589Z,38.18
2023-03-28T23:25:32.066Z,38.79
2023-03-28T23:27:59.098Z,38.27
2023-03-28T23:30:26.659Z,38.26
2023-03-28T23:32:53.840Z,38.36
2023-03-28T23:35:20.866Z,38.10
2023-03-28T23:37:52.546Z,38.02
2023-03-28T23:40:20.159Z,37.71
2023-03-28T23:42:47.107Z,37.96
2023-03-28T23:45:15.160Z,38.05
2023-03-28T23:47:42.994Z,37.95
2023-03-28T23:50:12.212Z,38.20
2023-03-28T23:52:39.817Z,37.79
2023-03-28T23:55:08.210Z,37.48
2023-03-28T23:57:37.462Z,37.91
